Gangca, China
Current Conditions -  °F | °C
As of 8:00 AM on Tuesday 23 Dec 2014 (Local Time) from ZLLL Reporting Station
Haze Haze  
Wind Chill: -2°   Ceiling: Unl
Heat Index:   Visibility: 3mi
Dew Point:   Wind: 7mph
Humidity: 73%   Direction: 330°NNW
Pressure: 30.09"   Gusts: NA
Location:  37.33°N, 100.13°E
Report Text: ZLLL 230000Z 33003MPS 5000 HZ NSC M13/M17 Q1019 NOSIG
Loading
Personal Weather Stations






























Interactive Weather Map New forecast layout! Learn more

10-Day Weather Forecast

Advertisements
Track Severe Weather on mobile